sensor_id;sensor_type;location;lat;lon;timestamp;temperature;humidity
46552;DHT22;32278;51.810;4.712;2023-02-28T00:00:24;2.60;99.90
46552;DHT22;32278;51.810;4.712;2023-02-28T00:02:50;2.50;99.90
46552;DHT22;32278;51.810;4.712;2023-02-28T00:05:20;2.50;99.90
46552;DHT22;32278;51.810;4.712;2023-02-28T00:07:46;2.50;99.90
46552;DHT22;32278;51.810;4.712;2023-02-28T00:10:15;2.50;99.90
46552;DHT22;32278;51.810;4.712;2023-02-28T00:12:41;2.50;99.90
46552;DHT22;32278;51.810;4.712;2023-02-28T00:15:08;2.50;99.90
46552;DHT22;32278;51.810;4.712;2023-02-28T00:17:34;2.50;99.90
46552;DHT22;32278;51.810;4.712;2023-02-28T00:20:00;2.50;99.90
46552;DHT22;32278;51.810;4.712;2023-02-28T00:22:33;2.50;99.90
46552;DHT22;32278;51.810;4.712;2023-02-28T00:24:58;2.60;99.90
46552;DHT22;32278;51.810;4.712;2023-02-28T00:27:25;2.60;99.90
46552;DHT22;32278;51.810;4.712;2023-02-28T00:29:51;2.50;99.90
46552;DHT22;32278;51.810;4.712;2023-02-28T00:32:16;2.50;99.90
46552;DHT22;32278;51.810;4.712;2023-02-28T00:34:44;2.60;99.90
46552;DHT22;32278;51.810;4.712;2023-02-28T00:37:10;2.60;99.90
46552;DHT22;32278;51.810;4.712;2023-02-28T00:39:38;2.60;99.90
46552;DHT22;32278;51.810;4.712;2023-02-28T00:42:05;2.50;99.90
46552;DHT22;32278;51.810;4.712;2023-02-28T00:44:31;2.50;99.90
46552;DHT22;32278;51.810;4.712;2023-02-28T00:46:57;2.50;99.90
46552;DHT22;32278;51.810;4.712;2023-02-28T00:49:23;2.40;99.90
46552;DHT22;32278;51.810;4.712;2023-02-28T00:51:49;2.40;99.90
46552;DHT22;32278;51.810;4.712;2023-02-28T00:54:15;2.50;99.90
46552;DHT22;32278;51.810;4.712;2023-02-28T00:56:40;2.60;99.90
46552;DHT22;32278;51.810;4.712;2023-02-28T00:59:07;2.60;99.90
46552;DHT22;32278;51.810;4.712;2023-02-28T01:01:34;2.50;99.90
46552;DHT22;32278;51.810;4.712;2023-02-28T01:04:00;2.40;99.90
46552;DHT22;32278;51.810;4.712;2023-02-28T01:06:26;2.40;99.90
46552;DHT22;32278;51.810;4.712;2023-02-28T01:08:52;2.40;99.90
46552;DHT22;32278;51.810;4.712;2023-02-28T01:11:18;2.40;99.90
46552;DHT22;32278;51.810;4.712;2023-02-28T01:13:45;2.50;99.90
46552;DHT22;32278;51.810;4.712;2023-02-28T01:16:11;2.40;99.90
46552;DHT22;32278;51.810;4.712;2023-02-28T01:18:38;2.40;99.90
46552;DHT22;32278;51.810;4.712;2023-02-28T01:21:15;2.40;99.90
46552;DHT22;32278;51.810;4.712;2023-02-28T01:23:41;2.40;99.90
46552;DHT22;32278;51.810;4.712;2023-02-28T01:26:09;2.40;99.90
46552;DHT22;32278;51.810;4.712;2023-02-28T01:28:35;2.40;99.90
46552;DHT22;32278;51.810;4.712;2023-02-28T01:31:01;2.60;99.90
46552;DHT22;32278;51.810;4.712;2023-02-28T01:33:27;2.50;99.90
46552;DHT22;32278;51.810;4.712;2023-02-28T01:36:00;2.50;99.90
46552;DHT22;32278;51.810;4.712;2023-02-28T01:38:27;2.50;99.90
46552;DHT22;32278;51.810;4.712;2023-02-28T01:40:52;2.50;99.90
46552;DHT22;32278;51.810;4.712;2023-02-28T01:43:22;2.50;99.90
46552;DHT22;32278;51.810;4.712;2023-02-28T01:45:49;2.60;99.90
46552;DHT22;32278;51.810;4.712;2023-02-28T01:48:14;2.60;99.90
46552;DHT22;32278;51.810;4.712;2023-02-28T01:50:43;2.60;99.90
46552;DHT22;32278;51.810;4.712;2023-02-28T01:53:16;2.60;99.90
46552;DHT22;32278;51.810;4.712;2023-02-28T01:55:44;2.60;99.90
46552;DHT22;32278;51.810;4.712;2023-02-28T01:58:11;2.60;99.90
46552;DHT22;32278;51.810;4.712;2023-02-28T02:00:37;2.70;99.90
46552;DHT22;32278;51.810;4.712;2023-02-28T02:03:09;2.70;99.90
46552;DHT22;32278;51.810;4.712;2023-02-28T02:05:37;2.70;99.90
46552;DHT22;32278;51.810;4.712;2023-02-28T02:08:12;2.80;99.90
46552;DHT22;32278;51.810;4.712;2023-02-28T02:10:42;2.80;99.90
46552;DHT22;32278;51.810;4.712;2023-02-28T02:18:51;2.80;99.90
46552;DHT22;32278;51.810;4.712;2023-02-28T02:40:13;2.90;99.90
46552;DHT22;32278;51.810;4.712;2023-02-28T02:42:59;3.00;99.90
46552;DHT22;32278;51.810;4.712;2023-02-28T02:45:39;3.10;99.90
46552;DHT22;32278;51.810;4.712;2023-02-28T02:48:09;3.10;99.90
46552;DHT22;32278;51.810;4.712;2023-02-28T02:50:41;3.20;99.90
46552;DHT22;32278;51.810;4.712;2023-02-28T02:53:09;3.10;99.90
46552;DHT22;32278;51.810;4.712;2023-02-28T02:55:40;3.20;99.90
46552;DHT22;32278;51.810;4.712;2023-02-28T02:58:10;3.20;99.90
46552;DHT22;32278;51.810;4.712;2023-02-28T03:00:47;3.20;99.90
46552;DHT22;32278;51.810;4.712;2023-02-28T03:03:13;3.20;99.90
46552;DHT22;32278;51.810;4.712;2023-02-28T03:05:47;3.10;99.90
46552;DHT22;32278;51.810;4.712;2023-02-28T03:08:13;3.10;99.90
46552;DHT22;32278;51.810;4.712;2023-02-28T03:10:45;3.10;99.90
46552;DHT22;32278;51.810;4.712;2023-02-28T03:13:37;3.10;99.90
46552;DHT22;32278;51.810;4.712;2023-02-28T03:27:16;3.20;99.90
46552;DHT22;32278;51.810;4.712;2023-02-28T03:29:46;3.10;99.90
46552;DHT22;32278;51.810;4.712;2023-02-28T03:34:51;3.10;99.90
46552;DHT22;32278;51.810;4.712;2023-02-28T03:37:22;3.10;99.90
46552;DHT22;32278;51.810;4.712;2023-02-28T03:39:58;3.10;99.90
46552;DHT22;32278;51.810;4.712;2023-02-28T03:42:29;3.10;99.90
46552;DHT22;32278;51.810;4.712;2023-02-28T03:45:02;3.10;99.90
46552;DHT22;32278;51.810;4.712;2023-02-28T03:47:57;3.10;99.90
46552;DHT22;32278;51.810;4.712;2023-02-28T03:50:29;3.20;99.90
46552;DHT22;32278;51.810;4.712;2023-02-28T03:53:10;3.20;99.90
46552;DHT22;32278;51.810;4.712;2023-02-28T03:55:47;3.20;99.90
46552;DHT22;32278;51.810;4.712;2023-02-28T03:58:35;3.20;99.90
46552;DHT22;32278;51.810;4.712;2023-02-28T04:01:53;3.30;99.90
46552;DHT22;32278;51.810;4.712;2023-02-28T04:03:54;3.30;99.90
46552;DHT22;32278;51.810;4.712;2023-02-28T04:06:21;3.30;99.90
46552;DHT22;32278;51.810;4.712;2023-02-28T04:08:48;3.20;99.90
46552;DHT22;32278;51.810;4.712;2023-02-28T04:13:45;3.20;99.90
46552;DHT22;32278;51.810;4.712;2023-02-28T04:16:11;3.20;99.90
46552;DHT22;32278;51.810;4.712;2023-02-28T04:18:41;3.20;99.90
46552;DHT22;32278;51.810;4.712;2023-02-28T04:21:09;3.30;99.90
46552;DHT22;32278;51.810;4.712;2023-02-28T04:23:35;3.40;99.90
46552;DHT22;32278;51.810;4.712;2023-02-28T04:26:00;3.40;99.90
46552;DHT22;32278;51.810;4.712;2023-02-28T04:28:26;3.50;99.90
46552;DHT22;32278;51.810;4.712;2023-02-28T04:31:00;3.50;99.90
46552;DHT22;32278;51.810;4.712;2023-02-28T04:33:26;3.60;99.90
46552;DHT22;32278;51.810;4.712;2023-02-28T04:36:07;3.60;99.90
46552;DHT22;32278;51.810;4.712;2023-02-28T04:38:35;3.50;99.90
46552;DHT22;32278;51.810;4.712;2023-02-28T04:41:01;3.40;99.90
46552;DHT22;32278;51.810;4.712;2023-02-28T04:43:28;3.30;99.90
46552;DHT22;32278;51.810;4.712;2023-02-28T04:45:54;3.30;99.90
46552;DHT22;32278;51.810;4.712;2023-02-28T04:48:28;3.30;99.90
46552;DHT22;32278;51.810;4.712;2023-02-28T04:50:54;3.30;99.90
46552;DHT22;32278;51.810;4.712;2023-02-28T04:53:20;3.20;99.90
46552;DHT22;32278;51.810;4.712;2023-02-28T04:55:46;3.20;99.90
46552;DHT22;32278;51.810;4.712;2023-02-28T04:58:15;3.20;99.90
46552;DHT22;32278;51.810;4.712;2023-02-28T05:00:41;3.20;99.90
46552;DHT22;32278;51.810;4.712;2023-02-28T05:03:07;3.20;99.90
46552;DHT22;32278;51.810;4.712;2023-02-28T05:05:32;3.20;99.90
46552;DHT22;32278;51.810;4.712;2023-02-28T05:07:58;3.10;99.90
46552;DHT22;32278;51.810;4.712;2023-02-28T05:10:24;3.10;99.90
46552;DHT22;32278;51.810;4.712;2023-02-28T05:12:50;3.10;99.90
46552;DHT22;32278;51.810;4.712;2023-02-28T05:15:16;3.20;99.90
46552;DHT22;32278;51.810;4.712;2023-02-28T05:17:42;3.20;99.90
46552;DHT22;32278;51.810;4.712;2023-02-28T05:20:09;3.20;99.90
46552;DHT22;32278;51.810;4.712;2023-02-28T05:22:39;3.10;99.90
46552;DHT22;32278;51.810;4.712;2023-02-28T05:25:05;3.10;99.90
46552;DHT22;32278;51.810;4.712;2023-02-28T05:27:31;3.10;99.90
46552;DHT22;32278;51.810;4.712;2023-02-28T05:29:56;3.00;99.90
46552;DHT22;32278;51.810;4.712;2023-02-28T05:32:22;3.10;99.90
46552;DHT22;32278;51.810;4.712;2023-02-28T05:34:48;3.10;99.90
46552;DHT22;32278;51.810;4.712;2023-02-28T05:37:14;3.00;99.90
46552;DHT22;32278;51.810;4.712;2023-02-28T05:39:41;3.00;99.90
46552;DHT22;32278;51.810;4.712;2023-02-28T05:42:07;2.90;99.90
46552;DHT22;32278;51.810;4.712;2023-02-28T05:44:33;3.00;99.90
46552;DHT22;32278;51.810;4.712;2023-02-28T05:46:58;3.00;99.90
46552;DHT22;32278;51.810;4.712;2023-02-28T05:49:24;2.80;99.90
46552;DHT22;32278;51.810;4.712;2023-02-28T05:51:50;2.70;99.90
46552;DHT22;32278;51.810;4.712;2023-02-28T05:54:15;2.70;99.90
46552;DHT22;32278;51.810;4.712;2023-02-28T05:56:41;2.60;99.90
46552;DHT22;32278;51.810;4.712;2023-02-28T05:59:09;2.60;99.90
46552;DHT22;32278;51.810;4.712;2023-02-28T06:01:37;2.60;99.90
46552;DHT22;32278;51.810;4.712;2023-02-28T06:04:06;2.60;99.90
46552;DHT22;32278;51.810;4.712;2023-02-28T06:06:32;2.60;99.90
46552;DHT22;32278;51.810;4.712;2023-02-28T06:08:59;2.60;99.90
46552;DHT22;32278;51.810;4.712;2023-02-28T06:11:26;2.60;99.90
46552;DHT22;32278;51.810;4.712;2023-02-28T06:13:54;2.70;99.90
46552;DHT22;32278;51.810;4.712;2023-02-28T06:16:21;2.60;99.90
46552;DHT22;32278;51.810;4.712;2023-02-28T06:18:47;2.60;99.90
46552;DHT22;32278;51.810;4.712;2023-02-28T06:21:12;2.50;99.90
46552;DHT22;32278;51.810;4.712;2023-02-28T06:23:38;2.60;99.90
46552;DHT22;32278;51.810;4.712;2023-02-28T06:26:04;2.50;99.90
46552;DHT22;32278;51.810;4.712;2023-02-28T06:28:30;2.50;99.90
46552;DHT22;32278;51.810;4.712;2023-02-28T06:30:55;2.50;99.90
46552;DHT22;32278;51.810;4.712;2023-02-28T06:33:21;2.50;99.90
46552;DHT22;32278;51.810;4.712;2023-02-28T06:35:49;2.50;99.90
46552;DHT22;32278;51.810;4.712;2023-02-28T06:38:15;2.40;99.90
46552;DHT22;32278;51.810;4.712;2023-02-28T06:40:41;2.40;99.90
46552;DHT22;32278;51.810;4.712;2023-02-28T06:43:07;2.40;99.90
46552;DHT22;32278;51.810;4.712;2023-02-28T06:45:32;2.40;99.90
46552;DHT22;32278;51.810;4.712;2023-02-28T06:47:58;2.40;99.90
46552;DHT22;32278;51.810;4.712;2023-02-28T06:50:25;2.40;99.90
46552;DHT22;32278;51.810;4.712;2023-02-28T06:52:52;2.30;99.90
46552;DHT22;32278;51.810;4.712;2023-02-28T06:55:19;2.30;99.90
46552;DHT22;32278;51.810;4.712;2023-02-28T06:57:45;2.40;99.90
46552;DHT22;32278;51.810;4.712;2023-02-28T07:00:11;2.50;99.90
46552;DHT22;32278;51.810;4.712;2023-02-28T07:02:37;2.50;99.90
46552;DHT22;32278;51.810;4.712;2023-02-28T07:05:04;2.50;99.90
46552;DHT22;32278;51.810;4.712;2023-02-28T07:07:30;2.50;99.90
46552;DHT22;32278;51.810;4.712;2023-02-28T07:09:56;2.50;99.90
46552;DHT22;32278;51.810;4.712;2023-02-28T07:12:21;2.60;99.90
46552;DHT22;32278;51.810;4.712;2023-02-28T07:14:47;2.70;99.90
46552;DHT22;32278;51.810;4.712;2023-02-28T07:17:13;2.70;99.90
46552;DHT22;32278;51.810;4.712;2023-02-28T07:19:39;2.70;99.90
46552;DHT22;32278;51.810;4.712;2023-02-28T07:22:05;2.80;99.90
46552;DHT22;32278;51.810;4.712;2023-02-28T07:24:31;2.80;99.90
46552;DHT22;32278;51.810;4.712;2023-02-28T07:26:57;3.10;99.90
46552;DHT22;32278;51.810;4.712;2023-02-28T07:29:22;3.20;99.90
46552;DHT22;32278;51.810;4.712;2023-02-28T07:31:48;3.20;99.90
46552;DHT22;32278;51.810;4.712;2023-02-28T07:34:15;3.20;99.90
46552;DHT22;32278;51.810;4.712;2023-02-28T07:36:41;3.00;99.90
46552;DHT22;32278;51.810;4.712;2023-02-28T07:39:06;3.00;99.90
46552;DHT22;32278;51.810;4.712;2023-02-28T07:41:34;3.00;99.90
46552;DHT22;32278;51.810;4.712;2023-02-28T07:44:02;2.90;99.90
46552;DHT22;32278;51.810;4.712;2023-02-28T07:46:28;2.90;99.90
46552;DHT22;32278;51.810;4.712;2023-02-28T07:49:00;2.90;99.90
46552;DHT22;32278;51.810;4.712;2023-02-28T07:51:26;3.00;99.90
46552;DHT22;32278;51.810;4.712;2023-02-28T07:53:51;3.10;99.90
46552;DHT22;32278;51.810;4.712;2023-02-28T07:56:17;3.10;99.90
46552;DHT22;32278;51.810;4.712;2023-02-28T07:58:42;3.20;99.90
46552;DHT22;32278;51.810;4.712;2023-02-28T08:01:09;3.00;99.90
46552;DHT22;32278;51.810;4.712;2023-02-28T08:03:35;3.00;99.90
46552;DHT22;32278;51.810;4.712;2023-02-28T08:06:02;3.20;99.90
46552;DHT22;32278;51.810;4.712;2023-02-28T08:08:28;3.30;99.90
46552;DHT22;32278;51.810;4.712;2023-02-28T08:11:05;3.30;99.90
46552;DHT22;32278;51.810;4.712;2023-02-28T08:13:31;3.20;99.90
46552;DHT22;32278;51.810;4.712;2023-02-28T08:15:57;3.20;99.90
46552;DHT22;32278;51.810;4.712;2023-02-28T08:18:23;3.20;99.90
46552;DHT22;32278;51.810;4.712;2023-02-28T08:20:48;3.40;99.90
46552;DHT22;32278;51.810;4.712;2023-02-28T08:23:14;3.40;99.90
46552;DHT22;32278;51.810;4.712;2023-02-28T08:25:40;3.40;99.90
46552;DHT22;32278;51.810;4.712;2023-02-28T08:28:05;3.50;99.90
46552;DHT22;32278;51.810;4.712;2023-02-28T08:30:31;3.30;99.90
46552;DHT22;32278;51.810;4.712;2023-02-28T08:32:57;3.40;99.90
46552;DHT22;32278;51.810;4.712;2023-02-28T08:35:22;3.30;99.90
46552;DHT22;32278;51.810;4.712;2023-02-28T08:37:48;3.30;99.90
46552;DHT22;32278;51.810;4.712;2023-02-28T08:40:14;3.30;99.90
46552;DHT22;32278;51.810;4.712;2023-02-28T08:42:47;3.30;99.90
46552;DHT22;32278;51.810;4.712;2023-02-28T08:45:14;3.40;99.90
46552;DHT22;32278;51.810;4.712;2023-02-28T08:47:40;3.40;99.90
46552;DHT22;32278;51.810;4.712;2023-02-28T08:50:06;3.50;99.90
46552;DHT22;32278;51.810;4.712;2023-02-28T08:52:32;3.50;99.90
46552;DHT22;32278;51.810;4.712;2023-02-28T08:54:58;3.50;99.90
46552;DHT22;32278;51.810;4.712;2023-02-28T08:57:24;3.30;99.90
46552;DHT22;32278;51.810;4.712;2023-02-28T08:59:51;3.30;99.90
46552;DHT22;32278;51.810;4.712;2023-02-28T09:02:17;3.30;99.90
46552;DHT22;32278;51.810;4.712;2023-02-28T09:04:43;3.40;99.90
46552;DHT22;32278;51.810;4.712;2023-02-28T09:07:11;3.40;99.90
46552;DHT22;32278;51.810;4.712;2023-02-28T09:09:37;3.60;99.90
46552;DHT22;32278;51.810;4.712;2023-02-28T09:12:03;3.50;99.90
46552;DHT22;32278;51.810;4.712;2023-02-28T09:14:28;3.40;99.90
46552;DHT22;32278;51.810;4.712;2023-02-28T09:16:54;3.40;99.90
46552;DHT22;32278;51.810;4.712;2023-02-28T09:19:20;3.30;99.90
46552;DHT22;32278;51.810;4.712;2023-02-28T09:21:46;3.50;99.90
46552;DHT22;32278;51.810;4.712;2023-02-28T09:24:11;3.60;99.90
46552;DHT22;32278;51.810;4.712;2023-02-28T09:26:39;3.40;99.90
46552;DHT22;32278;51.810;4.712;2023-02-28T09:29:05;3.30;99.90
46552;DHT22;32278;51.810;4.712;2023-02-28T09:31:31;3.30;99.90
46552;DHT22;32278;51.810;4.712;2023-02-28T09:33:58;3.40;99.90
46552;DHT22;32278;51.810;4.712;2023-02-28T09:36:25;3.50;99.90
46552;DHT22;32278;51.810;4.712;2023-02-28T09:38:51;3.40;99.90
46552;DHT22;32278;51.810;4.712;2023-02-28T09:41:23;3.20;99.90
46552;DHT22;32278;51.810;4.712;2023-02-28T09:43:53;3.30;99.90
46552;DHT22;32278;51.810;4.712;2023-02-28T09:48:55;3.30;99.90
46552;DHT22;32278;51.810;4.712;2023-02-28T09:51:43;3.40;99.90
46552;DHT22;32278;51.810;4.712;2023-02-28T09:54:21;3.50;99.90
46552;DHT22;32278;51.810;4.712;2023-02-28T09:56:53;3.50;99.90
46552;DHT22;32278;51.810;4.712;2023-02-28T09:59:35;3.50;1.00
46552;DHT22;32278;51.810;4.712;2023-02-28T10:04:58;3.50;28.90
46552;DHT22;32278;51.810;4.712;2023-02-28T10:07:58;3.60;99.90
46552;DHT22;32278;51.810;4.712;2023-02-28T10:10:55;3.60;1.00
46552;DHT22;32278;51.810;4.712;2023-02-28T10:16:25;4.10;99.90
46552;DHT22;32278;51.810;4.712;2023-02-28T10:19:21;4.50;63.60
46552;DHT22;32278;51.810;4.712;2023-02-28T10:22:19;4.60;1.00
46552;DHT22;32278;51.810;4.712;2023-02-28T10:24:50;4.70;99.90
46552;DHT22;32278;51.810;4.712;2023-02-28T10:27:25;4.80;57.40
46552;DHT22;32278;51.810;4.712;2023-02-28T10:29:55;5.00;1.00
46552;DHT22;32278;51.810;4.712;2023-02-28T10:32:35;5.00;99.90
46552;DHT22;32278;51.810;4.712;2023-02-28T10:37:32;5.50;99.90
46552;DHT22;32278;51.810;4.712;2023-02-28T10:40:07;5.30;99.90
46552;DHT22;32278;51.810;4.712;2023-02-28T10:43:03;5.00;74.00
46552;DHT22;32278;51.810;4.712;2023-02-28T10:45:34;4.90;84.20
46552;DHT22;32278;51.810;4.712;2023-02-28T10:50:52;4.90;1.00
46552;DHT22;32278;51.810;4.712;2023-02-28T10:53:30;4.90;1.00
46552;DHT22;32278;51.810;4.712;2023-02-28T11:04:00;5.40;1.00
46552;DHT22;32278;51.810;4.712;2023-02-28T11:06:33;5.60;1.00
46552;DHT22;32278;51.810;4.712;2023-02-28T11:09:03;5.40;1.00
46552;DHT22;32278;51.810;4.712;2023-02-28T11:11:31;5.50;1.00
46552;DHT22;32278;51.810;4.712;2023-02-28T11:14:17;5.50;1.00
46552;DHT22;32278;51.810;4.712;2023-02-28T11:16:44;5.50;1.00
46552;DHT22;32278;51.810;4.712;2023-02-28T11:19:20;5.50;99.90
46552;DHT22;32278;51.810;4.712;2023-02-28T11:21:56;5.30;99.90
46552;DHT22;32278;51.810;4.712;2023-02-28T11:24:35;5.40;99.90
46552;DHT22;32278;51.810;4.712;2023-02-28T11:27:02;5.70;99.90
46552;DHT22;32278;51.810;4.712;2023-02-28T11:29:32;6.40;99.90
46552;DHT22;32278;51.810;4.712;2023-02-28T11:32:18;6.80;99.90
46552;DHT22;32278;51.810;4.712;2023-02-28T11:34:46;6.80;99.90
46552;DHT22;32278;51.810;4.712;2023-02-28T11:37:19;6.50;99.90
46552;DHT22;32278;51.810;4.712;2023-02-28T11:39:46;6.70;99.90
46552;DHT22;32278;51.810;4.712;2023-02-28T11:42:16;6.70;99.90
46552;DHT22;32278;51.810;4.712;2023-02-28T11:47:53;6.70;99.90
46552;DHT22;32278;51.810;4.712;2023-02-28T11:50:42;7.00;55.00
46552;DHT22;32278;51.810;4.712;2023-02-28T11:55:57;7.10;99.90
46552;DHT22;32278;51.810;4.712;2023-02-28T11:58:50;7.10;69.70
46552;DHT22;32278;51.810;4.712;2023-02-28T12:01:36;7.20;2.60
46552;DHT22;32278;51.810;4.712;2023-02-28T12:04:30;7.10;18.90
46552;DHT22;32278;51.810;4.712;2023-02-28T12:10:04;7.30;1.00
46552;DHT22;32278;51.810;4.712;2023-02-28T12:13:10;7.50;1.00
46552;DHT22;32278;51.810;4.712;2023-02-28T12:15:41;7.20;1.00
46552;DHT22;32278;51.810;4.712;2023-02-28T12:18:34;6.90;1.00
46552;DHT22;32278;51.810;4.712;2023-02-28T12:26:58;7.60;1.00
46552;DHT22;32278;51.810;4.712;2023-02-28T12:29:29;7.70;1.00
46552;DHT22;32278;51.810;4.712;2023-02-28T12:34:44;7.40;1.00
46552;DHT22;32278;51.810;4.712;2023-02-28T12:37:22;7.80;1.00
46552;DHT22;32278;51.810;4.712;2023-02-28T12:39:55;7.70;1.00
46552;DHT22;32278;51.810;4.712;2023-02-28T12:42:40;8.00;99.90
46552;DHT22;32278;51.810;4.712;2023-02-28T12:45:22;7.50;1.00
46552;DHT22;32278;51.810;4.712;2023-02-28T12:47:50;7.70;99.90
46552;DHT22;32278;51.810;4.712;2023-02-28T12:50:18;7.60;99.90
46552;DHT22;32278;51.810;4.712;2023-02-28T12:55:32;7.80;99.90
46552;DHT22;32278;51.810;4.712;2023-02-28T12:58:14;8.40;99.90
46552;DHT22;32278;51.810;4.712;2023-02-28T13:03:41;8.60;99.90
46552;DHT22;32278;51.810;4.712;2023-02-28T13:06:22;7.90;99.90
46552;DHT22;32278;51.810;4.712;2023-02-28T13:11:53;7.10;99.90
46552;DHT22;32278;51.810;4.712;2023-02-28T13:19:29;7.70;99.90
46552;DHT22;32278;51.810;4.712;2023-02-28T13:21:58;7.70;99.90
46552;DHT22;32278;51.810;4.712;2023-02-28T13:24:41;8.00;99.90
46552;DHT22;32278;51.810;4.712;2023-02-28T13:29:38;7.10;99.90
46552;DHT22;32278;51.810;4.712;2023-02-28T13:50:38;6.30;99.90
46552;DHT22;32278;51.810;4.712;2023-02-28T13:56:07;6.10;99.90
46552;DHT22;32278;51.810;4.712;2023-02-28T13:58:54;6.20;99.90
46552;DHT22;32278;51.810;4.712;2023-02-28T14:06:57;6.00;99.90
46552;DHT22;32278;51.810;4.712;2023-02-28T14:09:33;6.00;99.90
46552;DHT22;32278;51.810;4.712;2023-02-28T14:15:04;6.00;99.90
46552;DHT22;32278;51.810;4.712;2023-02-28T14:17:30;6.00;99.90
46552;DHT22;32278;51.810;4.712;2023-02-28T14:19:57;6.20;99.90
46552;DHT22;32278;51.810;4.712;2023-02-28T14:25:29;5.80;99.90
46552;DHT22;32278;51.810;4.712;2023-02-28T14:28:31;5.80;99.90
46552;DHT22;32278;51.810;4.712;2023-02-28T14:31:15;5.90;99.90
46552;DHT22;32278;51.810;4.712;2023-02-28T14:36:21;6.00;99.90
46552;DHT22;32278;51.810;4.712;2023-02-28T14:38:54;5.90;99.90
46552;DHT22;32278;51.810;4.712;2023-02-28T14:41:31;5.90;99.90
46552;DHT22;32278;51.810;4.712;2023-02-28T14:44:01;5.90;99.90
46552;DHT22;32278;51.810;4.712;2023-02-28T14:46:37;6.00;99.90
46552;DHT22;32278;51.810;4.712;2023-02-28T14:49:04;6.20;99.90
46552;DHT22;32278;51.810;4.712;2023-02-28T14:51:31;6.20;99.90
46552;DHT22;32278;51.810;4.712;2023-02-28T14:54:00;6.10;99.90
46552;DHT22;32278;51.810;4.712;2023-02-28T14:56:35;6.10;99.90
46552;DHT22;32278;51.810;4.712;2023-02-28T14:59:02;5.90;99.90
46552;DHT22;32278;51.810;4.712;2023-02-28T15:01:28;6.00;99.90
46552;DHT22;32278;51.810;4.712;2023-02-28T15:04:02;6.00;99.90
46552;DHT22;32278;51.810;4.712;2023-02-28T15:06:28;5.90;99.90
46552;DHT22;32278;51.810;4.712;2023-02-28T15:09:13;5.90;99.90
46552;DHT22;32278;51.810;4.712;2023-02-28T15:11:39;6.00;99.90
46552;DHT22;32278;51.810;4.712;2023-02-28T15:14:05;5.90;99.90
46552;DHT22;32278;51.810;4.712;2023-02-28T15:16:37;6.00;99.90
46552;DHT22;32278;51.810;4.712;2023-02-28T15:19:25;6.00;99.90
46552;DHT22;32278;51.810;4.712;2023-02-28T15:22:06;5.90;99.90
46552;DHT22;32278;51.810;4.712;2023-02-28T15:24:44;5.80;99.90
46552;DHT22;32278;51.810;4.712;2023-02-28T15:27:22;5.90;99.90
46552;DHT22;32278;51.810;4.712;2023-02-28T15:29:54;6.00;99.90
46552;DHT22;32278;51.810;4.712;2023-02-28T15:32:28;6.10;99.90
46552;DHT22;32278;51.810;4.712;2023-02-28T15:34:55;6.00;99.90
46552;DHT22;32278;51.810;4.712;2023-02-28T15:37:41;6.00;99.90
46552;DHT22;32278;51.810;4.712;2023-02-28T15:40:17;6.10;99.90
46552;DHT22;32278;51.810;4.712;2023-02-28T15:43:11;6.10;99.90
46552;DHT22;32278;51.810;4.712;2023-02-28T15:45:47;5.90;99.90
46552;DHT22;32278;51.810;4.712;2023-02-28T15:50:57;6.10;99.90
46552;DHT22;32278;51.810;4.712;2023-02-28T15:53:32;6.10;99.90
46552;DHT22;32278;51.810;4.712;2023-02-28T15:56:02;6.10;99.90
46552;DHT22;32278;51.810;4.712;2023-02-28T15:58:28;6.00;99.90
46552;DHT22;32278;51.810;4.712;2023-02-28T16:01:04;6.00;99.90
46552;DHT22;32278;51.810;4.712;2023-02-28T16:03:39;5.90;99.90
46552;DHT22;32278;51.810;4.712;2023-02-28T16:06:26;6.00;99.90
46552;DHT22;32278;51.810;4.712;2023-02-28T16:08:56;6.00;99.90
46552;DHT22;32278;51.810;4.712;2023-02-28T16:11:21;6.00;99.90
46552;DHT22;32278;51.810;4.712;2023-02-28T16:13:47;6.00;99.90
46552;DHT22;32278;51.810;4.712;2023-02-28T16:16:18;6.00;99.90
46552;DHT22;32278;51.810;4.712;2023-02-28T16:18:44;5.90;99.90
46552;DHT22;32278;51.810;4.712;2023-02-28T16:21:10;6.00;99.90
46552;DHT22;32278;51.810;4.712;2023-02-28T16:23:36;6.00;99.90
46552;DHT22;32278;51.810;4.712;2023-02-28T16:26:03;5.90;99.90
46552;DHT22;32278;51.810;4.712;2023-02-28T16:28:31;5.90;99.90
46552;DHT22;32278;51.810;4.712;2023-02-28T16:31:00;5.90;99.90
46552;DHT22;32278;51.810;4.712;2023-02-28T16:33:28;5.80;99.90
46552;DHT22;32278;51.810;4.712;2023-02-28T16:35:54;5.90;99.90
46552;DHT22;32278;51.810;4.712;2023-02-28T16:38:19;5.90;99.90
46552;DHT22;32278;51.810;4.712;2023-02-28T16:40:47;5.80;99.90
46552;DHT22;32278;51.810;4.712;2023-02-28T16:43:20;5.80;99.90
46552;DHT22;32278;51.810;4.712;2023-02-28T16:45:47;5.70;99.90
46552;DHT22;32278;51.810;4.712;2023-02-28T16:48:15;5.70;99.90
46552;DHT22;32278;51.810;4.712;2023-02-28T16:50:41;5.70;99.90
46552;DHT22;32278;51.810;4.712;2023-02-28T16:53:08;5.70;99.90
46552;DHT22;32278;51.810;4.712;2023-02-28T16:55:34;5.70;99.90
46552;DHT22;32278;51.810;4.712;2023-02-28T16:58:01;5.70;99.90
46552;DHT22;32278;51.810;4.712;2023-02-28T17:00:28;5.70;99.90
46552;DHT22;32278;51.810;4.712;2023-02-28T17:02:55;5.60;99.90
46552;DHT22;32278;51.810;4.712;2023-02-28T17:05:21;5.60;99.90
46552;DHT22;32278;51.810;4.712;2023-02-28T17:07:47;5.60;99.90
46552;DHT22;32278;51.810;4.712;2023-02-28T17:10:19;5.60;99.90
46552;DHT22;32278;51.810;4.712;2023-02-28T17:12:46;5.60;99.90
46552;DHT22;32278;51.810;4.712;2023-02-28T17:15:13;5.50;99.90
46552;DHT22;32278;51.810;4.712;2023-02-28T17:17:39;5.40;99.90
46552;DHT22;32278;51.810;4.712;2023-02-28T17:20:06;5.30;99.90
46552;DHT22;32278;51.810;4.712;2023-02-28T17:22:32;5.40;99.90
46552;DHT22;32278;51.810;4.712;2023-02-28T17:24:57;5.30;99.90
46552;DHT22;32278;51.810;4.712;2023-02-28T17:27:24;5.20;99.90
46552;DHT22;32278;51.810;4.712;2023-02-28T17:29:50;5.20;99.90
46552;DHT22;32278;51.810;4.712;2023-02-28T17:32:15;5.10;99.90
46552;DHT22;32278;51.810;4.712;2023-02-28T17:34:41;5.10;99.90
46552;DHT22;32278;51.810;4.712;2023-02-28T17:37:08;5.00;99.90
46552;DHT22;32278;51.810;4.712;2023-02-28T17:39:34;5.10;99.90
46552;DHT22;32278;51.810;4.712;2023-02-28T17:41:59;5.00;99.90
46552;DHT22;32278;51.810;4.712;2023-02-28T17:44:25;5.00;99.90
46552;DHT22;32278;51.810;4.712;2023-02-28T17:46:51;5.00;99.90
46552;DHT22;32278;51.810;4.712;2023-02-28T17:49:18;4.90;99.90
46552;DHT22;32278;51.810;4.712;2023-02-28T17:51:45;5.00;1.00
46552;DHT22;32278;51.810;4.712;2023-02-28T17:54:10;5.00;99.90
46552;DHT22;32278;51.810;4.712;2023-02-28T17:56:36;5.10;1.00
46552;DHT22;32278;51.810;4.712;2023-02-28T17:59:02;5.10;1.00
46552;DHT22;32278;51.810;4.712;2023-02-28T18:01:28;5.20;1.00
46552;DHT22;32278;51.810;4.712;2023-02-28T18:03:54;5.10;1.00
46552;DHT22;32278;51.810;4.712;2023-02-28T18:06:32;5.10;1.00
46552;DHT22;32278;51.810;4.712;2023-02-28T18:08:58;5.00;1.00
46552;DHT22;32278;51.810;4.712;2023-02-28T18:11:24;4.70;1.00
46552;DHT22;32278;51.810;4.712;2023-02-28T18:13:53;4.40;1.00
46552;DHT22;32278;51.810;4.712;2023-02-28T18:16:20;4.30;1.00
46552;DHT22;32278;51.810;4.712;2023-02-28T18:18:47;4.10;1.00